Time;durP1;ratioP1;P1;durP2;ratioP2;P2;SDS_P1;SDS_P2;PMS_P1;PMS_P2;Temp;Humidity;BMP_temperature;BMP_pressure;BME280_temperature;BME280_humidity;BME280_pressure;Samples;Min_cycle;Max_cycle;Signal;HPM_P1;HPM_P2
2021/08/07 00:01:41;;;;;;;2.35;0.80;;;17.00;99.90;;;;;;4954095;28;20030;-82
2021/08/07 00:04:07;;;;;;;1.63;0.85;;;17.00;99.90;;;;;;4954095;28;20039;-83
2021/08/07 00:06:32;;;;;;;1.27;0.52;;;17.00;99.90;;;;;;4986065;28;20034;-84
2021/08/07 00:08:58;;;;;;;2.55;0.60;;;17.00;99.90;;;;;;4953608;28;20081;-84
2021/08/07 00:11:23;;;;;;;1.80;0.50;;;16.90;99.90;;;;;;4972418;28;20033;-83
2021/08/07 00:13:49;;;;;;;1.95;0.47;;;16.90;99.90;;;;;;4969715;28;20026;-82
2021/08/07 00:16:15;;;;;;;1.13;0.40;;;16.90;99.90;;;;;;4967775;28;20027;-84
2021/08/07 00:18:40;;;;;;;2.72;0.35;;;16.90;99.90;;;;;;4969681;28;20042;-83
2021/08/07 00:21:06;;;;;;;2.55;0.75;;;17.00;99.90;;;;;;4952599;28;20050;-85
2021/08/07 00:23:32;;;;;;;2.15;0.50;;;16.90;99.90;;;;;;4969881;28;20030;-85
2021/08/07 00:25:57;;;;;;;3.33;0.50;;;16.90;99.90;;;;;;4969714;28;20031;-86
2021/08/07 00:28:23;;;;;;;1.23;0.45;;;16.80;99.90;;;;;;4969705;28;20019;-84
2021/08/07 00:30:49;;;;;;;3.55;0.45;;;16.80;99.90;;;;;;4985781;28;20026;-83
2021/08/07 00:33:15;;;;;;;2.08;0.50;;;16.80;99.90;;;;;;4969804;28;20035;-85
2021/08/07 00:35:41;;;;;;;1.35;0.40;;;16.70;99.90;;;;;;4952663;28;20491;-84
2021/08/07 00:38:07;;;;;;;4.03;0.60;;;16.70;99.90;;;;;;4968479;28;20035;-84
2021/08/07 00:40:33;;;;;;;1.63;0.65;;;16.70;99.90;;;;;;4985408;28;20023;-85
2021/08/07 00:43:01;;;;;;;1.02;0.40;;;16.60;99.90;;;;;;4962053;28;20513;-85
2021/08/07 00:45:39;;;;;;;1.83;0.40;;;16.60;99.90;;;;;;4954823;28;20086;-84
2021/08/07 00:48:07;;;;;;;;;;;16.70;99.90;;;;;;4967267;28;20039;-85
2021/08/07 00:50:47;;;;;;;4.38;0.50;;;16.70;99.90;;;;;;4967572;28;19914;-85
2021/08/07 00:53:19;;;;;;;1.17;0.40;;;16.70;99.90;;;;;;4969322;28;20022;-85
2021/08/07 00:55:46;;;;;;;1.77;0.40;;;16.70;99.90;;;;;;4969265;28;20058;-83
2021/08/07 00:58:12;;;;;;;1.30;0.40;;;16.70;99.90;;;;;;4969184;28;20042;-84
2021/08/07 01:00:39;;;;;;;1.98;0.50;;;16.60;99.90;;;;;;4969094;28;20030;-85
2021/08/07 01:03:28;;;;;;;2.28;0.50;;;16.60;99.90;;;;;;4953475;28;20034;-85
2021/08/07 01:06:01;;;;;;;1.95;0.68;;;16.50;99.90;;;;;;4967881;28;20403;-85
2021/08/07 01:08:40;;;;;;;2.08;0.60;;;16.50;99.90;;;;;;4969252;28;20023;-85
2021/08/07 01:11:31;;;;;;;2.80;1.10;;;16.50;99.90;;;;;;4985079;28;20093;-84
2021/08/07 01:14:04;;;;;;;3.08;0.70;;;16.50;99.90;;;;;;4985348;28;20035;-84
2021/08/07 01:16:34;;;;;;;1.90;0.65;;;16.50;99.90;;;;;;4969967;28;20083;-85
2021/08/07 01:19:09;;;;;;;1.60;0.73;;;16.50;99.90;;;;;;4951317;28;20031;-84
2021/08/07 01:21:42;;;;;;;3.25;0.63;;;16.50;99.90;;;;;;4973154;28;20034;-84
2021/08/07 01:24:21;;;;;;;5.40;2.05;;;16.50;99.90;;;;;;4969168;28;20027;-85
2021/08/07 01:27:24;;;;;;;1.65;0.50;;;16.50;99.90;;;;;;4968972;28;20027;-85
2021/08/07 01:30:00;;;;;;;1.48;0.50;;;16.50;99.90;;;;;;4983009;28;20027;-84
2021/08/07 01:32:28;;;;;;;1.95;0.70;;;16.50;99.90;;;;;;4969912;28;20062;-84
2021/08/07 01:34:55;;;;;;;2.17;0.50;;;16.50;99.90;;;;;;4971694;28;20027;-84
2021/08/07 01:37:23;;;;;;;1.33;0.60;;;16.50;99.90;;;;;;4968694;28;20038;-83
2021/08/07 01:40:04;;;;;;;2.42;0.50;;;16.50;99.90;;;;;;4968073;28;20098;-83
2021/08/07 01:42:42;;;;;;;5.00;0.80;;;16.40;99.90;;;;;;4954390;28;20055;-84
2021/08/07 01:45:14;;;;;;;1.10;0.50;;;16.40;99.90;;;;;;4966323;28;20098;-84
2021/08/07 01:48:02;;;;;;;1.95;0.60;;;16.50;99.90;;;;;;5016801;23;20096;-84
2021/08/07 01:50:44;;;;;;;3.30;0.75;;;16.50;99.90;;;;;;5013016;28;20053;-84
2021/08/07 01:53:16;;;;;;;2.63;0.90;;;16.40;99.90;;;;;;5011653;28;20116;-83
2021/08/07 01:56:04;;;;;;;4.55;0.90;;;16.40;99.90;;;;;;5011642;28;20052;-84
2021/08/07 01:59:00;;;;;;;3.38;1.15;;;16.40;99.90;;;;;;5012245;28;20401;-85
2021/08/07 02:01:34;;;;;;;3.20;0.90;;;16.40;99.90;;;;;;5009960;28;20096;-86
2021/08/07 02:04:03;;;;;;;2.88;1.42;;;16.40;99.90;;;;;;5015599;28;20507;-84
2021/08/07 02:06:35;;;;;;;2.50;0.80;;;16.40;99.90;;;;;;5016023;28;20022;-83
2021/08/07 02:09:02;;;;;;;2.88;0.55;;;16.30;99.90;;;;;;5031934;28;20056;-84
2021/08/07 02:11:41;;;;;;;2.90;0.70;;;16.40;99.90;;;;;;5016726;28;20021;-84
2021/08/07 02:14:09;;;;;;;1.70;0.60;;;16.30;99.90;;;;;;5015598;28;20034;-84
2021/08/07 02:16:38;;;;;;;1.80;0.85;;;16.30;99.90;;;;;;5024505;28;20021;-83
2021/08/07 02:19:08;;;;;;;2.67;0.70;;;16.30;99.90;;;;;;5034884;28;20033;-83
2021/08/07 02:21:37;;;;;;;2.42;0.85;;;16.30;99.90;;;;;;5051141;28;20122;-84
2021/08/07 02:24:05;;;;;;;3.55;1.00;;;16.30;99.90;;;;;;5034937;28;20059;-85
2021/08/07 02:26:34;;;;;;;2.65;0.75;;;16.30;99.90;;;;;;5034588;28;20033;-84
2021/08/07 02:29:04;;;;;;;2.55;0.80;;;16.30;99.90;;;;;;5034982;28;20028;-84
2021/08/07 02:31:32;;;;;;;2.85;0.90;;;16.30;99.90;;;;;;5034501;28;20024;-85
2021/08/07 02:33:59;;;;;;;3.42;1.00;;;16.20;99.90;;;;;;5034459;28;20099;-83
2021/08/07 02:36:29;;;;;;;4.05;0.90;;;16.10;99.90;;;;;;5034438;28;20036;-84
2021/08/07 02:39:01;;;;;;;2.83;0.80;;;16.10;99.90;;;;;;5035136;28;20025;-83
2021/08/07 02:41:27;;;;;;;4.28;0.80;;;16.10;99.90;;;;;;5034100;28;20032;-84
2021/08/07 02:43:55;;;;;;;2.28;0.60;;;16.10;99.90;;;;;;5034329;28;20029;-84
2021/08/07 02:46:41;;;;;;;2.22;0.60;;;16.10;99.90;;;;;;5034327;28;20029;-84
2021/08/07 02:49:10;;;;;;;3.08;0.70;;;16.10;99.90;;;;;;4947516;28;20101;-85
2021/08/07 02:51:38;;;;;;;1.15;0.60;;;16.00;99.90;;;;;;4954760;28;20035;-85
2021/08/07 02:54:08;;;;;;;2.10;0.70;;;16.00;99.90;;;;;;4970983;28;20094;-85
2021/08/07 02:56:35;;;;;;;2.50;0.85;;;16.00;99.90;;;;;;4954953;28;20043;-85
2021/08/07 02:59:00;;;;;;;3.40;1.38;;;15.90;99.90;;;;;;4954886;28;20129;-85
2021/08/07 03:01:27;;;;;;;3.17;1.75;;;16.00;99.90;;;;;;4954801;28;20115;-85
2021/08/07 03:03:55;;;;;;;2.47;1.77;;;16.00;99.90;;;;;;4955113;28;20098;-85
2021/08/07 03:06:23;;;;;;;4.97;2.97;;;16.00;99.90;;;;;;4954928;28;20522;-84
2021/08/07 03:08:51;;;;;;;2.60;2.07;;;16.00;99.90;;;;;;4955031;28;20031;-85
2021/08/07 03:11:19;;;;;;;2.70;2.20;;;16.00;99.90;;;;;;4954741;28;20069;-85
2021/08/07 03:13:48;;;;;;;2.78;1.45;;;16.00;99.90;;;;;;4953751;28;20058;-84
2021/08/07 03:16:16;;;;;;;2.97;1.60;;;16.00;99.90;;;;;;4947966;29;20061;-86
2021/08/07 03:18:44;;;;;;;5.10;1.38;;;15.90;99.90;;;;;;4935470;29;20183;-85
2021/08/07 03:21:11;;;;;;;2.22;1.27;;;16.00;99.90;;;;;;4935389;29;20031;-85
2021/08/07 03:23:45;;;;;;;1.67;0.82;;;16.00;99.90;;;;;;4951138;29;20136;-85
2021/08/07 03:26:12;;;;;;;1.75;0.93;;;16.00;99.90;;;;;;4984918;28;20041;-84
2021/08/07 03:28:39;;;;;;;4.45;1.00;;;16.00;99.90;;;;;;5033344;28;20025;-85
2021/08/07 03:31:05;;;;;;;3.40;1.25;;;15.90;99.90;;;;;;5033408;28;20055;-85
2021/08/07 03:33:35;;;;;;;2.35;0.95;;;16.00;99.90;;;;;;5033842;28;20029;-84
2021/08/07 03:36:03;;;;;;;1.95;0.90;;;16.00;99.90;;;;;;5033508;28;20120;-85
2021/08/07 03:38:29;;;;;;;2.83;1.13;;;15.90;99.90;;;;;;5033091;28;20039;-83
2021/08/07 03:40:56;;;;;;;4.13;1.05;;;16.00;99.90;;;;;;5033185;28;20029;-84
2021/08/07 03:43:22;;;;;;;3.88;1.20;;;16.00;99.90;;;;;;5032861;28;20072;-84
2021/08/07 03:45:48;;;;;;;1.80;0.90;;;16.00;99.90;;;;;;5032888;28;20025;-84
2021/08/07 03:48:15;;;;;;;1.70;0.80;;;15.90;99.90;;;;;;5029145;28;20041;-84
2021/08/07 03:50:45;;;;;;;2.90;1.00;;;15.90;99.90;;;;;;5029867;28;20049;-84
2021/08/07 03:53:15;;;;;;;1.60;1.10;;;16.00;99.90;;;;;;5046119;28;20025;-85
2021/08/07 03:55:43;;;;;;;4.13;1.30;;;15.90;99.90;;;;;;5013615;28;20037;-85
2021/08/07 03:58:08;;;;;;;3.33;1.00;;;15.90;99.90;;;;;;5029577;28;20109;-85
2021/08/07 04:00:39;;;;;;;3.65;1.00;;;15.90;99.90;;;;;;5045919;28;20037;-84
2021/08/07 04:03:07;;;;;;;3.90;1.00;;;16.00;99.90;;;;;;5013548;28;20040;-84
2021/08/07 04:05:34;;;;;;;2.45;1.67;;;16.00;99.90;;;;;;5013110;28;20485;-85
2021/08/07 04:08:06;;;;;;;2.88;1.08;;;15.90;99.90;;;;;;5029273;28;20033;-85
2021/08/07 04:10:32;;;;;;;2.40;1.50;;;15.90;99.90;;;;;;5013030;28;20029;-85
2021/08/07 04:12:58;;;;;;;3.80;1.45;;;15.80;99.90;;;;;;5012756;28;20034;-83
2021/08/07 04:15:24;;;;;;;2.30;1.65;;;15.90;99.90;;;;;;5012749;28;20033;-84
2021/08/07 04:17:50;;;;;;;3.60;1.70;;;15.90;99.90;;;;;;5028970;28;20037;-84
2021/08/07 04:20:17;;;;;;;2.25;1.23;;;15.90;99.90;;;;;;5029347;28;20034;-84
2021/08/07 04:22:43;;;;;;;1.95;1.30;;;15.90;99.90;;;;;;5029185;28;20112;-84
2021/08/07 04:25:10;;;;;;;3.17;1.90;;;15.90;99.90;;;;;;5028837;28;20028;-85
2021/08/07 04:27:39;;;;;;;3.40;2.33;;;15.90;99.90;;;;;;5029124;28;20032;-85
2021/08/07 04:30:07;;;;;;;2.72;1.85;;;15.80;99.90;;;;;;5028553;28;20445;-85
2021/08/07 04:32:35;;;;;;;2.90;1.42;;;15.80;99.90;;;;;;5028264;28;20025;-84
2021/08/07 04:35:07;;;;;;;2.15;1.33;;;15.80;99.90;;;;;;5028397;28;20033;-84
2021/08/07 04:37:44;;;;;;;3.47;1.10;;;15.80;99.90;;;;;;5047292;28;20037;-85
2021/08/07 04:40:11;;;;;;;2.15;1.13;;;15.80;99.90;;;;;;5031568;28;20064;-85
2021/08/07 04:42:37;;;;;;;2.63;0.75;;;15.90;99.90;;;;;;5031349;28;20025;-85
2021/08/07 04:45:04;;;;;;;1.33;0.80;;;15.90;99.90;;;;;;5030314;28;20033;-84
2021/08/07 04:47:30;;;;;;;3.15;0.60;;;15.90;99.90;;;;;;5030532;28;20089;-85
2021/08/07 04:49:57;;;;;;;1.52;0.77;;;15.90;99.90;;;;;;5025246;28;20029;-85
2021/08/07 04:52:24;;;;;;;2.63;1.00;;;15.90;99.90;;;;;;5028386;28;20037;-85
2021/08/07 04:54:49;;;;;;;2.35;0.82;;;15.90;99.90;;;;;;5027794;28;20084;-85
2021/08/07 04:57:15;;;;;;;1.63;0.68;;;16.00;99.90;;;;;;5044388;28;20065;-86
2021/08/07 04:59:41;;;;;;;1.95;0.70;;;16.00;99.90;;;;;;5027535;28;20121;-86
2021/08/07 05:02:07;;;;;;;5.40;0.98;;;16.00;99.90;;;;;;5047177;28;20025;-84
2021/08/07 05:04:34;;;;;;;2.72;0.70;;;16.00;99.90;;;;;;5047409;28;20119;-84
2021/08/07 05:06:59;;;;;;;1.73;0.57;;;15.90;99.90;;;;;;5047541;28;20025;-85
2021/08/07 05:09:26;;;;;;;2.78;0.60;;;15.90;99.90;;;;;;5030919;28;20025;-84
2021/08/07 05:12:09;;;;;;;2.05;0.90;;;15.90;99.90;;;;;;5033196;28;20029;-85
2021/08/07 05:14:38;;;;;;;1.95;0.60;;;15.90;99.90;;;;;;5031511;28;20048;-84
2021/08/07 05:17:05;;;;;;;3.33;0.70;;;15.90;99.90;;;;;;5027236;28;20064;-85
2021/08/07 05:19:31;;;;;;;1.88;0.82;;;16.00;99.90;;;;;;5011166;28;20026;-85
2021/08/07 05:21:57;;;;;;;3.40;0.40;;;16.00;99.90;;;;;;5011189;28;20055;-84
2021/08/07 05:24:22;;;;;;;1.65;0.50;;;16.00;99.90;;;;;;5027431;28;20056;-85
2021/08/07 05:26:49;;;;;;;1.33;0.50;;;16.00;99.90;;;;;;5011159;28;20033;-85
2021/08/07 05:29:15;;;;;;;2.78;0.40;;;16.00;99.90;;;;;;5027489;28;20052;-86
2021/08/07 05:31:41;;;;;;;3.85;0.50;;;15.90;99.90;;;;;;5027387;28;20089;-87
2021/08/07 05:34:07;;;;;;;1.70;0.40;;;15.90;99.90;;;;;;5025356;28;20052;-84
2021/08/07 05:36:33;;;;;;;1.23;0.50;;;16.00;99.90;;;;;;5030692;28;20033;-87
2021/08/07 05:38:59;;;;;;;2.45;0.50;;;16.10;99.90;;;;;;5034953;28;20067;-86
2021/08/07 05:41:24;;;;;;;1.58;0.50;;;16.20;99.90;;;;;;5034776;28;20029;-86
2021/08/07 05:43:50;;;;;;;0.90;0.30;;;16.30;99.90;;;;;;5034959;28;20056;-86
2021/08/07 05:46:18;;;;;;;2.13;0.32;;;16.50;99.90;;;;;;5034424;28;20051;-86
2021/08/07 05:48:43;;;;;;;2.53;0.40;;;16.60;99.90;;;;;;5030490;28;20138;-84
2021/08/07 05:51:09;;;;;;;2.88;0.40;;;16.60;99.90;;;;;;5031054;28;20473;-87
2021/08/07 05:53:35;;;;;;;1.40;0.40;;;16.60;99.90;;;;;;5031162;28;20393;-86
2021/08/07 05:56:00;;;;;;;1.63;0.30;;;16.60;99.90;;;;;;5015560;28;20433;-87
2021/08/07 05:58:37;;;;;;;3.40;0.50;;;16.50;99.90;;;;;;5031210;28;20041;-87
2021/08/07 06:01:03;;;;;;;2.60;0.52;;;16.60;99.90;;;;;;5014780;28;20303;-88
2021/08/07 06:03:28;;;;;;;0.85;0.32;;;16.70;99.90;;;;;;5030940;28;20040;-87
2021/08/07 06:05:54;;;;;;;2.55;0.40;;;16.70;99.90;;;;;;5031226;28;20025;-87
2021/08/07 06:08:19;;;;;;;2.08;0.40;;;16.70;99.90;;;;;;5014776;28;20528;-86
2021/08/07 06:10:46;;;;;;;2.63;0.50;;;16.70;99.90;;;;;;5014584;28;20041;-87
2021/08/07 06:13:14;;;;;;;1.13;0.30;;;16.80;99.90;;;;;;5014970;28;20029;-84
2021/08/07 06:15:41;;;;;;;0.60;0.30;;;16.90;99.90;;;;;;5032937;28;20029;-87
2021/08/07 06:18:07;;;;;;;1.23;0.40;;;16.90;99.90;;;;;;5033658;28;20040;-86
2021/08/07 06:20:36;;;;;;;1.15;0.40;;;17.00;99.90;;;;;;5034801;28;20044;-87
2021/08/07 06:23:02;;;;;;;3.08;0.40;;;17.20;99.90;;;;;;5034193;28;20021;-87
2021/08/07 06:25:28;;;;;;;1.17;0.30;;;17.20;99.90;;;;;;5034190;28;20017;-87
2021/08/07 06:27:55;;;;;;;1.60;0.40;;;17.20;99.90;;;;;;5034067;28;20029;-86
2021/08/07 06:30:25;;;;;;;2.38;0.40;;;17.40;99.90;;;;;;5034165;28;20028;-88
2021/08/07 06:32:52;;;;;;;1.40;0.30;;;17.70;99.90;;;;;;5033727;28;20033;-86
2021/08/07 06:35:18;;;;;;;1.55;0.40;;;17.90;99.90;;;;;;5033991;28;20060;-87
2021/08/07 06:37:44;;;;;;;1.98;0.40;;;18.10;99.90;;;;;;5033974;28;20048;-86
2021/08/07 06:40:11;;;;;;;1.85;0.50;;;18.30;99.90;;;;;;5033911;28;20096;-86
2021/08/07 06:42:37;;;;;;;2.95;0.55;;;18.30;99.90;;;;;;5033296;28;20039;-87
2021/08/07 06:45:08;;;;;;;1.17;0.30;;;18.50;99.90;;;;;;5050243;28;20036;-88
2021/08/07 06:47:35;;;;;;;0.98;0.28;;;18.60;99.90;;;;;;5048830;28;20025;-87
2021/08/07 06:50:01;;;;;;;0.93;0.40;;;18.70;99.90;;;;;;5033183;28;20033;-89
2021/08/07 06:52:27;;;;;;;1.42;0.47;;;18.90;99.90;;;;;;5029756;28;20040;-87
2021/08/07 06:54:53;;;;;;;2.50;0.30;;;19.00;99.90;;;;;;5028326;28;20064;-87
2021/08/07 06:57:20;;;;;;;1.45;0.30;;;18.80;99.90;;;;;;5067811;28;20036;-87
2021/08/07 06:59:47;;;;;;;3.28;0.30;;;18.60;99.90;;;;;;5049748;28;20169;-87
2021/08/07 07:02:13;;;;;;;1.30;0.30;;;18.50;99.90;;;;;;5034071;28;20067;-87
2021/08/07 07:04:39;;;;;;;0.85;0.30;;;18.20;99.90;;;;;;5049712;28;20056;-87
2021/08/07 07:07:06;;;;;;;6.00;0.40;;;18.50;99.90;;;;;;5033143;28;20119;-86
2021/08/07 07:09:32;;;;;;;0.90;0.20;;;18.90;99.90;;;;;;5033309;28;20032;-87
2021/08/07 07:11:58;;;;;;;2.80;0.60;;;19.20;99.90;;;;;;5049559;28;20033;-87
2021/08/07 07:14:24;;;;;;;1.88;0.55;;;19.40;99.90;;;;;;5033203;28;20036;-87
2021/08/07 07:16:50;;;;;;;2.92;0.20;;;19.50;99.90;;;;;;5020849;28;20033;-87
2021/08/07 07:19:16;;;;;;;1.67;0.30;;;19.70;99.90;;;;;;5013135;28;20456;-88
2021/08/07 07:21:44;;;;;;;0.95;0.20;;;19.80;99.90;;;;;;5029287;28;20083;-88
2021/08/07 07:24:10;;;;;;;2.05;0.20;;;19.90;99.90;;;;;;5029872;28;20092;-87
2021/08/07 07:26:36;;;;;;;1.73;0.40;;;20.10;99.90;;;;;;5029513;28;20057;-88
2021/08/07 07:29:06;;;;;;;1.60;0.30;;;20.30;99.90;;;;;;5013514;28;20072;-87
2021/08/07 07:31:32;;;;;;;1.10;0.30;;;20.40;99.90;;;;;;5012565;28;20104;-87
2021/08/07 07:33:58;;;;;;;1.10;0.30;;;20.20;99.90;;;;;;5013011;28;20040;-86
2021/08/07 07:36:26;;;;;;;2.33;0.20;;;20.40;99.90;;;;;;5013398;28;20048;-87
2021/08/07 07:38:52;;;;;;;1.75;0.30;;;20.40;99.90;;;;;;5029261;28;20041;-86
2021/08/07 07:41:18;;;;;;;1.25;0.30;;;20.70;99.90;;;;;;5012501;28;20022;-87
2021/08/07 07:43:44;;;;;;;0.60;0.30;;;20.50;99.90;;;;;;5012582;28;20037;-84
2021/08/07 07:46:10;;;;;;;1.13;0.40;;;20.70;99.90;;;;;;5028937;28;20022;-84
2021/08/07 07:48:36;;;;;;;2.17;0.30;;;20.80;99.90;;;;;;5023128;23;20117;-81
2021/08/07 07:51:02;;;;;;;3.03;0.60;;;20.70;99.90;;;;;;4973970;28;20031;-83
2021/08/07 07:53:28;;;;;;;2.13;0.40;;;20.70;99.90;;;;;;4974017;28;20030;-82
2021/08/07 07:55:53;;;;;;;1.58;0.40;;;20.90;99.90;;;;;;4974143;28;20048;-84
2021/08/07 07:58:19;;;;;;;2.45;0.40;;;21.30;99.90;;;;;;4973706;28;20038;-83
2021/08/07 08:00:45;;;;;;;1.17;0.20;;;21.30;99.90;;;;;;4973115;28;20033;-82
2021/08/07 08:03:11;;;;;;;1.48;0.30;;;21.50;99.90;;;;;;4973444;28;20057;-83
2021/08/07 08:05:41;;;;;;;0.77;0.22;;;21.50;99.90;;;;;;4989899;28;20077;-85
2021/08/07 08:08:07;;;;;;;1.15;0.25;;;21.40;99.90;;;;;;4989945;28;20034;-85
2021/08/07 08:10:36;;;;;;;1.38;0.25;;;21.60;99.90;;;;;;4990285;28;20030;-83
2021/08/07 08:13:05;;;;;;;2.05;0.40;;;21.30;99.90;;;;;;4974164;28;20073;-85
2021/08/07 08:15:37;;;;;;;1.48;0.47;;;21.10;99.90;;;;;;4974271;28;20038;-88
2021/08/07 08:18:04;;;;;;;3.22;0.45;;;21.40;99.90;;;;;;4974333;28;20054;-89
2021/08/07 08:20:31;;;;;;;2.45;0.30;;;21.60;99.90;;;;;;4990339;28;20078;-89
2021/08/07 08:22:56;;;;;;;1.90;0.30;;;21.60;99.90;;;;;;4974081;28;20046;-89
2021/08/07 08:25:24;;;;;;;2.47;0.40;;;21.20;99.90;;;;;;4974198;28;20078;-87
2021/08/07 08:27:51;;;;;;;1.52;0.40;;;21.70;99.90;;;;;;4974019;28;20090;-86
2021/08/07 08:30:17;;;;;;;3.15;0.40;;;22.20;99.90;;;;;;4973930;28;20033;-87
2021/08/07 08:32:45;;;;;;;1.30;0.30;;;22.20;99.90;;;;;;4990370;28;20034;-86
2021/08/07 08:35:12;;;;;;;1.30;0.30;;;22.20;99.90;;;;;;4972430;28;20074;-87
2021/08/07 08:37:38;;;;;;;2.95;0.30;;;22.20;99.90;;;;;;4973752;28;20030;-89
2021/08/07 08:40:06;;;;;;;3.28;0.30;;;22.40;99.90;;;;;;4973943;28;20125;-87
2021/08/07 08:42:32;;;;;;;1.88;0.30;;;22.30;99.90;;;;;;4973743;28;20031;-89
2021/08/07 08:45:00;;;;;;;2.13;0.20;;;22.40;99.90;;;;;;4973610;28;20030;-86
2021/08/07 08:47:26;;;;;;;5.63;0.30;;;22.30;99.90;;;;;;4989545;28;20030;-89
2021/08/07 08:49:54;;;;;;;2.67;0.22;;;21.90;99.90;;;;;;4986381;28;20137;-86
2021/08/07 08:52:24;;;;;;;0.55;0.20;;;22.10;99.90;;;;;;4970627;28;20097;-88
2021/08/07 08:54:52;;;;;;;2.27;0.13;;;22.10;99.90;;;;;;4973381;28;20074;-89
2021/08/07 08:57:19;;;;;;;1.92;0.20;;;22.00;99.90;;;;;;4973607;28;20034;-87
2021/08/07 08:59:54;;;;;;;3.10;0.25;;;22.50;99.90;;;;;;4973073;28;20117;-85
2021/08/07 09:02:19;;;;;;;1.02;0.20;;;22.30;99.90;;;;;;4989458;28;20038;-87
2021/08/07 09:04:46;;;;;;;1.60;0.20;;;22.40;99.90;;;;;;4973343;28;20022;-85
2021/08/07 09:07:14;;;;;;;2.25;0.13;;;22.50;99.90;;;;;;4973330;28;20109;-87
2021/08/07 09:09:52;;;;;;;1.33;0.10;;;22.70;99.90;;;;;;4973329;28;20022;-87
2021/08/07 09:12:20;;;;;;;0.50;0.10;;;23.30;99.90;;;;;;4972714;28;20027;-87
2021/08/07 09:14:47;;;;;;;1.13;0.30;;;23.20;99.90;;;;;;4988943;28;20062;-86
2021/08/07 09:17:21;;;;;;;1.00;0.15;;;23.40;99.90;;;;;;4999579;28;20042;-87
2021/08/07 09:20:04;;;;;;;0.77;0.30;;;23.00;99.90;;;;;;5008502;28;20030;-87
2021/08/07 09:22:32;;;;;;;1.17;0.10;;;23.10;99.90;;;;;;5008459;28;20045;-87
2021/08/07 09:25:09;;;;;;;0.85;0.10;;;22.70;99.90;;;;;;4993655;28;20026;-88
2021/08/07 09:27:46;;;;;;;0.43;0.10;;;23.20;99.90;;;;;;4992678;28;20033;-86
2021/08/07 09:30:18;;;;;;;1.25;0.10;;;23.40;99.90;;;;;;4992396;28;20030;-85
2021/08/07 09:32:51;;;;;;;1.88;0.10;;;23.80;99.90;;;;;;4978609;28;20027;-87
2021/08/07 09:35:22;;;;;;;1.80;0.20;;;23.30;99.90;;;;;;4969194;28;20097;-88
2021/08/07 09:38:03;;;;;;;;;;;23.40;99.90;;;;;;4968954;28;20105;-86
2021/08/07 09:40:38;;;;;;;0.63;0.10;;;23.80;99.90;;;;;;4952927;28;19910;-86
2021/08/07 09:43:04;;;;;;;0.90;0.10;;;23.60;99.90;;;;;;4953141;28;20042;-84
2021/08/07 09:45:30;;;;;;;0.52;0.10;;;23.70;99.90;;;;;;4968785;28;20034;-86
2021/08/07 09:47:59;;;;;;;1.92;0.20;;;23.60;99.90;;;;;;4972129;28;20047;-85
2021/08/07 09:50:28;;;;;;;1.35;0.20;;;23.30;99.90;;;;;;5007214;28;20086;-85
2021/08/07 09:52:59;;;;;;;0.63;0.20;;;23.80;99.90;;;;;;5007530;28;20520;-85
2021/08/07 09:55:26;;;;;;;0.47;0.20;;;23.80;99.90;;;;;;4991451;28;20057;-85
2021/08/07 09:58:07;;;;;;;0.45;0.10;;;24.30;99.90;;;;;;4991157;28;20053;-87
2021/08/07 10:00:40;;;;;;;1.50;0.20;;;24.10;99.90;;;;;;4991223;28;20026;-87
2021/08/07 10:03:18;;;;;;;1.10;0.52;;;23.80;99.90;;;;;;5008118;28;20046;-85
2021/08/07 10:05:47;;;;;;;1.42;0.20;;;23.40;99.90;;;;;;5007335;28;20104;-86
2021/08/07 10:08:14;;;;;;;2.15;0.20;;;22.60;99.90;;;;;;4991001;28;20030;-85
2021/08/07 10:10:47;;;;;;;1.40;0.40;;;22.40;99.90;;;;;;4991612;28;20055;-84
2021/08/07 10:13:17;;;;;;;0.90;0.20;;;22.50;99.90;;;;;;4991755;28;20041;-85
2021/08/07 10:15:53;;;;;;;1.83;0.20;;;22.20;99.90;;;;;;4992563;28;20025;-86
2021/08/07 10:18:19;;;;;;;1.75;0.50;;;22.20;99.90;;;;;;4991197;28;20087;-83
2021/08/07 10:20:45;;;;;;;0.63;0.13;;;22.00;99.90;;;;;;4991184;28;20033;-84
2021/08/07 10:23:13;;;;;;;1.85;0.25;;;21.80;99.90;;;;;;4992475;28;20030;-86
2021/08/07 10:25:43;;;;;;;0.85;0.20;;;22.40;99.90;;;;;;4999637;28;20018;-87
2021/08/07 10:28:11;;;;;;;1.92;0.20;;;23.10;99.90;;;;;;4975160;28;20041;-85
2021/08/07 10:30:38;;;;;;;0.52;0.10;;;23.70;99.90;;;;;;4997467;28;20335;-84
2021/08/07 10:33:05;;;;;;;1.65;0.17;;;23.70;99.90;;;;;;4985780;28;20038;-86
2021/08/07 10:35:31;;;;;;;1.92;0.20;;;24.00;99.90;;;;;;4971555;28;20031;-84
2021/08/07 10:37:58;;;;;;;2.15;0.30;;;23.50;99.90;;;;;;4990942;28;20049;-84
2021/08/07 10:40:26;;;;;;;2.15;0.13;;;23.70;99.90;;;;;;4974850;28;20034;-86
2021/08/07 10:42:54;;;;;;;0.25;0.00;;;24.40;99.90;;;;;;4974823;28;20518;-84
2021/08/07 10:45:21;;;;;;;1.70;0.20;;;24.40;99.90;;;;;;4974771;28;20026;-86
2021/08/07 10:47:50;;;;;;;1.70;0.20;;;24.50;99.90;;;;;;4974253;28;20133;-84
2021/08/07 10:50:28;;;;;;;1.27;0.20;;;24.50;99.90;;;;;;4990452;28;20026;-83
2021/08/07 10:52:58;;;;;;;1.25;0.20;;;23.70;99.90;;;;;;4991237;28;20030;-83
2021/08/07 10:55:43;;;;;;;1.95;0.10;;;23.40;99.90;;;;;;4990623;28;20057;-86
2021/08/07 10:58:42;;;;;;;1.63;0.20;;;23.30;99.90;;;;;;4990580;28;20046;-84
2021/08/07 11:04:05;;;;;;;0.60;0.10;;;22.90;99.90;;;;;;5007946;28;20036;-87
2021/08/07 11:06:48;;;;;;;1.98;0.20;;;23.00;99.90;;;;;;4990402;28;20046;-85
2021/08/07 11:09:37;;;;;;;1.63;0.10;;;22.30;99.90;;;;;;4990378;28;20038;-84
2021/08/07 11:12:06;;;;;;;2.33;0.20;;;22.10;99.90;;;;;;4973455;28;20046;-84
2021/08/07 11:14:34;;;;;;;1.70;0.20;;;21.50;99.90;;;;;;4990147;28;20044;-85
2021/08/07 11:17:03;;;;;;;1.17;0.20;;;21.20;99.90;;;;;;5002991;28;20034;-86
2021/08/07 11:19:54;;;;;;;3.65;0.30;;;21.10;99.90;;;;;;4998589;28;20034;-86
2021/08/07 11:22:32;;;;;;;1.17;0.10;;;20.80;99.90;;;;;;4991086;28;20030;-87
2021/08/07 11:25:14;;;;;;;1.77;0.90;;;21.70;99.90;;;;;;4990717;28;20114;-86
2021/08/07 11:27:46;;;;;;;1.30;0.20;;;21.70;99.90;;;;;;4974813;28;20031;-86
2021/08/07 11:30:25;;;;;;;1.48;0.20;;;21.60;99.90;;;;;;4974692;28;20031;-86
2021/08/07 11:32:57;;;;;;;1.52;0.20;;;21.50;99.90;;;;;;4989717;28;20030;-85
2021/08/07 11:35:35;;;;;;;3.60;0.43;;;22.10;99.90;;;;;;4973424;28;20026;-87
2021/08/07 11:38:07;;;;;;;1.38;0.20;;;22.80;99.90;;;;;;4987363;28;20039;-86
2021/08/07 11:41:02;;;;;;;2.78;0.20;;;23.00;99.90;;;;;;4989769;28;20030;-85
2021/08/07 11:43:30;;;;;;;1.73;0.20;;;22.90;99.90;;;;;;4990391;28;20053;-85
2021/08/07 11:45:59;;;;;;;1.17;0.20;;;22.80;99.90;;;;;;4973648;28;20078;-85
2021/08/07 11:48:26;;;;;;;1.40;0.10;;;23.20;99.90;;;;;;5003366;23;20061;-82
2021/08/07 11:50:52;;;;;;;2.00;0.20;;;23.60;99.90;;;;;;4992511;28;20041;-86
2021/08/07 11:53:26;;;;;;;1.40;0.10;;;23.80;99.90;;;;;;4993784;28;20022;-84
2021/08/07 11:56:08;;;;;;;1.95;0.13;;;24.20;99.90;;;;;;5018718;28;20125;-85
2021/08/07 11:58:44;;;;;;;1.13;0.20;;;24.00;99.90;;;;;;4999453;28;20397;-86
2021/08/07 12:01:10;;;;;;;4.90;0.30;;;24.30;99.90;;;;;;5010093;28;20026;-86
2021/08/07 12:03:55;;;;;;;0.65;0.20;;;24.00;99.90;;;;;;5027382;28;20029;-84
2021/08/07 12:06:26;;;;;;;0.70;0.10;;;24.50;99.90;;;;;;4993315;28;20030;-84
2021/08/07 12:08:52;;;;;;;1.17;0.15;;;24.40;99.90;;;;;;5009449;28;20033;-84
2021/08/07 12:11:18;;;;;;;0.35;0.10;;;24.30;99.90;;;;;;4989995;28;20029;-87
2021/08/07 12:14:05;;;;;;;1.52;0.30;;;24.30;99.90;;;;;;5007439;28;20042;-84
2021/08/07 12:16:33;;;;;;;2.22;0.20;;;23.80;99.90;;;;;;4996859;28;20037;-85
2021/08/07 12:19:12;;;;;;;1.25;0.20;;;24.00;99.90;;;;;;4989452;28;20046;-85
2021/08/07 12:21:39;;;;;;;;;;;24.20;99.90;;;;;;4993565;28;20052;-86
2021/08/07 12:24:15;;;;;;;1.58;0.10;;;24.20;99.90;;;;;;4992938;28;19920;-87
2021/08/07 12:26:46;;;;;;;0.95;0.13;;;23.70;99.90;;;;;;5004946;28;20038;-88
2021/08/07 12:29:16;;;;;;;0.65;0.10;;;24.80;99.90;;;;;;4993266;28;20080;-87
2021/08/07 12:31:59;;;;;;;2.13;0.20;;;24.50;99.90;;;;;;5008860;28;20041;-89
2021/08/07 12:34:29;;;;;;;0.98;0.20;;;24.90;99.90;;;;;;4992699;28;20034;-88
2021/08/07 12:37:02;;;;;;;;;;;24.30;99.90;;;;;;4992828;28;20156;-86
2021/08/07 12:39:36;;;;;;;1.80;0.10;;;23.70;99.90;;;;;;4991215;28;19940;-86
2021/08/07 12:42:02;;;;;;;1.25;0.20;;;24.50;99.90;;;;;;4992297;28;20030;-89
2021/08/07 12:44:28;;;;;;;0.50;0.10;;;24.10;99.90;;;;;;5008805;28;20037;-86
2021/08/07 12:46:58;;;;;;;1.08;0.20;;;24.50;99.90;;;;;;5005743;28;20102;-87
2021/08/07 12:49:43;;;;;;;1.02;0.13;;;24.20;99.90;;;;;;5026342;28;20069;-89
2021/08/07 12:52:11;;;;;;;1.20;0.10;;;24.40;99.90;;;;;;5008861;28;20030;-89
2021/08/07 12:54:38;;;;;;;0.97;0.10;;;24.40;99.90;;;;;;5008537;28;20033;-86
2021/08/07 12:57:22;;;;;;;0.40;0.10;;;24.40;99.90;;;;;;5008346;28;20303;-86
2021/08/07 12:59:54;;;;;;;0.95;0.10;;;23.80;99.90;;;;;;5008747;28;20038;-86
2021/08/07 13:02:21;;;;;;;0.85;0.10;;;23.80;99.90;;;;;;4991933;28;20037;-87
2021/08/07 13:04:48;;;;;;;7.35;0.22;;;24.20;99.90;;;;;;5008285;28;20030;-85